createdAt,value
2022-09-26T00:01:43.064Z,12.50
2022-09-26T00:04:16.048Z,12.45
2022-09-26T00:06:44.196Z,12.43
2022-09-26T00:09:14.080Z,12.40
2022-09-26T00:11:43.018Z,12.36
2022-09-26T00:14:19.143Z,12.34
2022-09-26T00:16:47.875Z,12.32
2022-09-26T00:19:17.209Z,12.30
2022-09-26T00:21:45.359Z,12.28
2022-09-26T00:24:13.898Z,12.26
2022-09-26T00:26:42.066Z,12.26
2022-09-26T00:29:12.279Z,12.25
2022-09-26T00:31:44.520Z,12.21
2022-09-26T00:34:14.730Z,12.16
2022-09-26T00:36:42.940Z,12.13
2022-09-26T00:39:14.391Z,12.12
2022-09-26T00:41:43.452Z,12.10
2022-09-26T00:44:46.813Z,12.10
2022-09-26T00:47:32.347Z,12.09
2022-09-26T00:50:08.058Z,12.07
2022-09-26T00:52:45.304Z,12.08
2022-09-26T00:55:17.831Z,12.06
2022-09-26T00:57:55.854Z,12.03
2022-09-26T01:00:24.271Z,12.02
2022-09-26T01:02:54.469Z,12.01
2022-09-26T01:05:24.300Z,11.99
2022-09-26T01:07:56.476Z,11.98
2022-09-26T01:10:29.934Z,11.98
2022-09-26T01:13:01.490Z,11.96
2022-09-26T01:15:30.302Z,11.94
2022-09-26T01:17:58.446Z,11.92
2022-09-26T01:20:51.241Z,11.88
2022-09-26T01:23:19.200Z,11.84
2022-09-26T01:26:28.497Z,11.80
2022-09-26T01:29:02.056Z,11.75
2022-09-26T01:31:40.199Z,11.69
2022-09-26T01:34:29.888Z,11.61
2022-09-26T01:37:14.669Z,11.54
2022-09-26T01:40:18.334Z,11.48
2022-09-26T01:43:05.904Z,11.42
2022-09-26T01:45:55.277Z,11.38
2022-09-26T01:48:41.689Z,11.35
2022-09-26T01:51:57.734Z,11.34
2022-09-26T01:54:29.761Z,11.36
2022-09-26T01:57:00.688Z,11.36
2022-09-26T01:59:37.843Z,11.36
2022-09-26T02:02:19.532Z,11.34
2022-09-26T02:04:52.771Z,11.30
2022-09-26T02:07:31.354Z,11.24
2022-09-26T02:10:33.785Z,11.18
2022-09-26T02:13:11.569Z,11.15
2022-09-26T02:15:40.618Z,11.16
2022-09-26T02:18:17.432Z,11.17
2022-09-26T02:21:01.404Z,11.20
2022-09-26T02:23:31.165Z,11.25
2022-09-26T02:26:00.251Z,11.28
2022-09-26T02:28:28.641Z,11.31
2022-09-26T02:31:00.707Z,11.34
2022-09-26T02:33:30.116Z,11.36
2022-09-26T02:36:01.134Z,11.35
2022-09-26T02:38:31.858Z,11.36
2022-09-26T02:41:13.342Z,11.35
2022-09-26T02:43:56.120Z,11.34
2022-09-26T02:46:39.818Z,11.32
2022-09-26T02:49:26.743Z,11.27
2022-09-26T02:52:22.461Z,11.17
2022-09-26T02:55:09.817Z,11.11
2022-09-26T02:58:04.071Z,11.11
2022-09-26T03:00:47.420Z,11.11
2022-09-26T03:03:47.873Z,11.15
2022-09-26T03:06:20.824Z,11.25
2022-09-26T03:08:51.521Z,11.31
2022-09-26T03:11:25.080Z,11.36
2022-09-26T03:13:56.364Z,11.39
2022-09-26T03:16:29.633Z,11.42
2022-09-26T03:19:27.446Z,11.43
2022-09-26T03:21:56.712Z,11.44
2022-09-26T03:24:26.141Z,11.44
2022-09-26T03:26:56.279Z,11.42
2022-09-26T03:29:26.569Z,11.41
2022-09-26T03:31:54.618Z,11.38
2022-09-26T03:34:22.765Z,11.33
2022-09-26T03:36:51.265Z,11.27
2022-09-26T03:39:19.641Z,11.22
2022-09-26T03:42:16.909Z,11.18
2022-09-26T03:44:48.277Z,11.15
2022-09-26T03:47:42.203Z,11.14
2022-09-26T03:50:10.525Z,11.13
2022-09-26T03:52:38.571Z,11.16
2022-09-26T03:55:06.926Z,11.17
2022-09-26T03:57:38.197Z,11.18
2022-09-26T04:00:16.768Z,11.17
2022-09-26T04:02:45.185Z,11.17
2022-09-26T04:05:20.842Z,11.18
2022-09-26T04:07:49.348Z,11.19
2022-09-26T04:10:17.589Z,11.20
2022-09-26T04:12:46.190Z,11.20
2022-09-26T04:15:15.984Z,11.21
2022-09-26T04:17:44.654Z,11.21
2022-09-26T04:20:13.941Z,11.25
2022-09-26T04:22:43.498Z,11.30
2022-09-26T04:25:11.656Z,11.36
2022-09-26T04:27:40.326Z,11.37
2022-09-26T04:30:09.972Z,11.39
2022-09-26T04:32:42.758Z,11.42
2022-09-26T04:35:49.369Z,11.44
2022-09-26T04:38:18.840Z,11.41
2022-09-26T04:40:47.191Z,11.38
2022-09-26T04:43:15.399Z,11.34
2022-09-26T04:45:44.022Z,11.29
2022-09-26T04:48:12.914Z,11.28
2022-09-26T04:50:55.444Z,11.29
2022-09-26T04:53:24.091Z,11.31
2022-09-26T04:56:10.102Z,11.33
2022-09-26T04:58:39.000Z,11.36
2022-09-26T05:01:10.061Z,11.41
2022-09-26T05:03:51.262Z,11.50
2022-09-26T05:06:19.409Z,11.61
2022-09-26T05:08:49.434Z,11.73
2022-09-26T05:11:21.678Z,11.80
2022-09-26T05:13:53.531Z,11.83
2022-09-26T05:16:22.788Z,11.85
2022-09-26T05:18:52.708Z,11.91
2022-09-26T05:21:21.698Z,12.00
2022-09-26T05:24:08.683Z,12.08
2022-09-26T05:26:47.986Z,12.15
2022-09-26T05:29:16.417Z,12.19
2022-09-26T05:32:06.002Z,12.24
2022-09-26T05:34:37.212Z,12.28
2022-09-26T05:37:05.761Z,12.33
2022-09-26T05:39:52.929Z,12.37
2022-09-26T05:42:21.306Z,12.43
2022-09-26T05:44:49.578Z,12.50
2022-09-26T05:47:17.965Z,12.55
2022-09-26T05:49:46.193Z,12.61
2022-09-26T05:52:15.932Z,12.71
2022-09-26T05:54:43.998Z,12.82
2022-09-26T05:57:30.710Z,12.94
2022-09-26T05:59:59.263Z,13.09
2022-09-26T06:02:27.580Z,13.20
2022-09-26T06:05:14.525Z,13.32
2022-09-26T06:08:21.278Z,13.37
2022-09-26T06:11:03.299Z,13.38
2022-09-26T06:13:32.575Z,13.40
2022-09-26T06:16:06.296Z,13.48
2022-09-26T06:18:35.850Z,13.46
2022-09-26T06:21:05.237Z,13.69
2022-09-26T06:23:34.855Z,13.81
2022-09-26T06:26:08.524Z,13.94
2022-09-26T06:28:37.309Z,14.04
2022-09-26T06:31:16.878Z,14.14
2022-09-26T06:34:05.540Z,14.21
2022-09-26T06:37:00.037Z,14.28
2022-09-26T06:39:35.812Z,14.31
2022-09-26T06:42:07.578Z,14.35
2022-09-26T06:44:56.019Z,14.45
2022-09-26T06:47:29.839Z,14.54
2022-09-26T06:50:23.950Z,14.67
2022-09-26T06:52:55.659Z,14.90
2022-09-26T06:55:25.426Z,15.04
2022-09-26T06:57:54.214Z,15.06
2022-09-26T07:00:26.936Z,15.07
2022-09-26T07:03:08.469Z,15.14
2022-09-26T07:06:00.119Z,15.27
2022-09-26T07:08:50.486Z,15.37
2022-09-26T07:11:56.166Z,15.50
2022-09-26T07:14:08.135Z,15.62
2022-09-26T07:16:37.030Z,15.74
2022-09-26T07:19:24.542Z,15.88
2022-09-26T07:22:11.783Z,16.01
2022-09-26T07:24:48.848Z,16.11
2022-09-26T07:27:18.257Z,16.23
2022-09-26T07:29:48.979Z,16.39
2022-09-26T07:32:19.740Z,16.53
2022-09-26T07:35:03.408Z,16.70
2022-09-26T07:37:32.561Z,16.86
2022-09-26T07:40:01.992Z,17.03
2022-09-26T07:42:32.823Z,17.23
2022-09-26T07:48:21.597Z,17.56
2022-09-26T07:51:24.920Z,17.83
2022-09-26T07:53:53.027Z,18.08
2022-09-26T07:56:40.506Z,18.61
2022-09-26T07:59:36.862Z,19.10
2022-09-26T08:02:34.262Z,19.71
2022-09-26T08:05:05.185Z,20.30
2022-09-26T08:07:37.979Z,20.63
2022-09-26T08:10:20.264Z,21.01
2022-09-26T08:13:21.092Z,21.65
2022-09-26T08:16:08.463Z,22.23
2022-09-26T08:18:41.780Z,22.75
2022-09-26T08:21:09.887Z,23.22
2022-09-26T08:23:38.008Z,23.62
2022-09-26T08:26:25.388Z,23.92
2022-09-26T08:29:00.396Z,24.37
2022-09-26T08:31:28.897Z,24.83
2022-09-26T08:33:59.122Z,25.25
2022-09-26T08:36:27.451Z,25.49
2022-09-26T08:39:08.008Z,25.82
2022-09-26T08:42:37.341Z,26.08
2022-09-26T08:46:04.610Z,26.50
2022-09-26T08:49:01.124Z,26.47
2022-09-26T08:51:38.358Z,26.57
2022-09-26T08:54:16.961Z,26.69
2022-09-26T08:56:52.729Z,26.28
2022-09-26T08:59:31.781Z,25.90
2022-09-26T09:02:05.510Z,25.72
2022-09-26T09:05:04.671Z,25.64
2022-09-26T09:07:35.626Z,25.87
2022-09-26T09:10:08.485Z,26.40
2022-09-26T09:13:37.234Z,26.96
2022-09-26T09:16:30.886Z,27.61
2022-09-26T09:19:12.643Z,27.84
2022-09-26T09:22:22.488Z,27.99
2022-09-26T09:25:45.532Z,28.65
2022-09-26T09:28:35.505Z,29.02
2022-09-26T09:31:12.273Z,29.04
2022-09-26T09:34:06.966Z,29.22
2022-09-26T09:37:41.106Z,29.20
2022-09-26T09:40:32.395Z,29.26
2022-09-26T09:43:06.203Z,29.27
2022-09-26T09:45:45.222Z,29.38
2022-09-26T09:48:13.882Z,29.34
2022-09-26T09:51:23.362Z,28.95
2022-09-26T09:54:12.787Z,28.77
2022-09-26T09:57:09.038Z,28.79
2022-09-26T10:00:02.970Z,29.05
2022-09-26T10:03:00.326Z,29.33
2022-09-26T10:05:35.272Z,29.56
2022-09-26T10:08:05.003Z,29.82
2022-09-26T10:11:12.601Z,30.09
2022-09-26T10:14:27.696Z,30.13
2022-09-26T10:17:11.276Z,30.03
2022-09-26T10:19:54.519Z,29.91
2022-09-26T10:22:30.551Z,30.07
2022-09-26T10:25:31.637Z,29.89
2022-09-26T10:28:01.259Z,29.92
2022-09-26T10:30:34.354Z,29.94
2022-09-26T10:33:30.115Z,30.16
2022-09-26T10:36:21.401Z,30.11
2022-09-26T10:39:30.462Z,30.14
2022-09-26T10:41:59.621Z,30.31
2022-09-26T10:44:34.355Z,30.58
2022-09-26T10:47:15.401Z,30.72
2022-09-26T10:50:26.290Z,30.78
2022-09-26T10:53:15.785Z,30.48
2022-09-26T10:55:57.549Z,30.77
2022-09-26T10:58:30.038Z,30.82
2022-09-26T11:01:04.288Z,30.63
2022-09-26T11:03:43.588Z,30.71
2022-09-26T11:06:34.461Z,30.94
2022-09-26T11:09:22.910Z,30.92
2022-09-26T11:12:28.920Z,30.94
2022-09-26T11:15:06.765Z,31.04
2022-09-26T11:17:55.642Z,30.85
2022-09-26T11:20:36.145Z,30.95
2022-09-26T11:23:27.523Z,30.97
2022-09-26T11:26:21.037Z,31.20
2022-09-26T11:28:53.280Z,31.43
2022-09-26T11:31:44.154Z,31.36
2022-09-26T11:34:41.695Z,31.72
2022-09-26T11:37:15.434Z,31.89
2022-09-26T11:40:17.873Z,31.72
2022-09-26T11:43:05.156Z,31.59
2022-09-26T11:45:53.620Z,31.43
2022-09-26T11:49:18.886Z,31.50
2022-09-26T11:52:29.789Z,31.41
2022-09-26T11:55:48.912Z,31.55
2022-09-26T11:58:50.455Z,31.57
2022-09-26T12:01:30.697Z,31.51
2022-09-26T12:04:23.308Z,31.49
2022-09-26T12:07:20.308Z,31.46
2022-09-26T12:10:13.751Z,31.08
2022-09-26T12:13:13.566Z,30.89
2022-09-26T12:15:48.403Z,30.75
2022-09-26T12:18:24.255Z,30.72
2022-09-26T12:21:10.885Z,30.36
2022-09-26T12:23:54.289Z,30.14
2022-09-26T12:26:22.185Z,29.87
2022-09-26T12:28:56.243Z,29.22
2022-09-26T12:32:04.049Z,28.34
2022-09-26T12:34:55.839Z,27.33
2022-09-26T12:37:43.506Z,26.62
2022-09-26T12:40:30.545Z,26.07
2022-09-26T12:43:14.112Z,25.64
2022-09-26T12:45:53.407Z,25.27
2022-09-26T12:48:36.825Z,24.92
2022-09-26T12:51:33.029Z,24.62
2022-09-26T12:54:46.013Z,24.26
2022-09-26T12:58:01.012Z,23.98
2022-09-26T13:00:38.986Z,23.84
2022-09-26T13:03:28.832Z,23.79
2022-09-26T13:06:12.040Z,23.80
2022-09-26T13:08:57.499Z,23.82
2022-09-26T13:11:53.631Z,23.84
2022-09-26T13:14:42.103Z,23.93
2022-09-26T13:17:24.670Z,24.07
2022-09-26T13:19:59.422Z,24.19
2022-09-26T13:22:52.705Z,24.25
2022-09-26T13:25:49.239Z,24.26
2022-09-26T13:28:27.025Z,24.28
2022-09-26T13:31:02.122Z,24.18
2022-09-26T13:33:39.831Z,24.08
2022-09-26T13:36:09.857Z,24.07
2022-09-26T13:39:03.531Z,24.04
2022-09-26T13:41:32.596Z,23.97
2022-09-26T13:44:28.444Z,23.92
2022-09-26T13:47:28.792Z,23.99
2022-09-26T13:50:18.650Z,23.97
2022-09-26T13:52:52.611Z,23.83
2022-09-26T13:55:22.055Z,23.67
2022-09-26T13:58:08.605Z,23.49
2022-09-26T14:00:41.079Z,23.35
2022-09-26T14:03:18.362Z,23.29
2022-09-26T14:05:51.092Z,23.29
2022-09-26T14:08:44.431Z,23.25
2022-09-26T14:11:18.905Z,23.14
2022-09-26T14:13:48.511Z,23.04
2022-09-26T14:16:28.823Z,22.91
2022-09-26T14:19:09.978Z,22.79
2022-09-26T14:21:56.966Z,22.69
2022-09-26T14:24:24.946Z,22.57
2022-09-26T14:27:09.990Z,22.45
2022-09-26T14:29:47.115Z,22.32
2022-09-26T14:32:33.850Z,22.21
2022-09-26T14:35:05.459Z,22.09
2022-09-26T14:37:41.403Z,22.00
2022-09-26T14:40:09.964Z,21.92
2022-09-26T14:42:43.756Z,21.83
2022-09-26T14:45:16.727Z,21.75
2022-09-26T14:47:53.220Z,21.67
2022-09-26T14:50:27.421Z,21.48
2022-09-26T14:52:59.812Z,21.53
2022-09-26T14:55:31.443Z,21.48
2022-09-26T14:58:28.654Z,21.42
2022-09-26T15:01:02.671Z,21.38
2022-09-26T15:03:34.137Z,21.33
2022-09-26T15:06:05.661Z,21.27
2022-09-26T15:08:39.689Z,21.21
2022-09-26T15:11:08.165Z,21.13
2022-09-26T15:13:39.335Z,21.06
2022-09-26T15:16:40.890Z,21.00
2022-09-26T15:19:19.428Z,20.93
2022-09-26T15:22:15.706Z,20.87
2022-09-26T15:24:43.942Z,20.80
2022-09-26T15:27:20.342Z,20.75
2022-09-26T15:29:58.162Z,20.68
2022-09-26T15:32:31.413Z,20.62
2022-09-26T15:35:03.589Z,20.48
2022-09-26T15:37:34.724Z,20.41
2022-09-26T15:40:25.253Z,20.29
2022-09-26T15:43:11.892Z,20.17
2022-09-26T15:45:46.374Z,20.10
2022-09-26T15:48:19.369Z,20.04
2022-09-26T15:50:47.694Z,20.01
2022-09-26T15:53:36.530Z,19.97
2022-09-26T15:56:12.344Z,19.94
2022-09-26T15:58:40.519Z,19.92
2022-09-26T16:01:10.649Z,19.89
2022-09-26T16:03:38.787Z,19.93
2022-09-26T16:06:19.385Z,20.04
2022-09-26T16:08:53.221Z,19.96
2022-09-26T16:11:21.798Z,19.88
2022-09-26T16:13:51.994Z,19.79
2022-09-26T16:16:35.027Z,19.73
2022-09-26T16:19:04.265Z,19.68
2022-09-26T16:21:36.567Z,19.66
2022-09-26T16:24:29.177Z,19.81
2022-09-26T16:26:57.456Z,19.79
2022-09-26T16:29:35.102Z,19.76
2022-09-26T16:32:04.949Z,19.85
2022-09-26T16:34:33.149Z,19.80
2022-09-26T16:37:01.336Z,19.72
2022-09-26T16:39:31.174Z,19.67
2022-09-26T16:42:06.280Z,19.66
2022-09-26T16:44:41.302Z,19.62
2022-09-26T16:47:49.204Z,19.47
2022-09-26T16:50:26.771Z,19.53
2022-09-26T16:52:55.847Z,19.49
2022-09-26T16:55:25.803Z,19.47
2022-09-26T16:57:58.069Z,19.43
2022-09-26T17:00:52.144Z,19.39
2022-09-26T17:03:41.245Z,19.36
2022-09-26T17:06:10.439Z,19.37
2022-09-26T17:08:38.732Z,19.40
2022-09-26T17:11:14.417Z,19.44
2022-09-26T17:13:43.996Z,19.45
2022-09-26T17:16:12.909Z,19.45
2022-09-26T17:18:44.572Z,19.45
2022-09-26T17:21:12.892Z,19.44
2022-09-26T17:23:42.445Z,19.38
2022-09-26T17:26:24.044Z,19.33
2022-09-26T17:28:53.493Z,19.26
2022-09-26T17:31:21.782Z,19.16
2022-09-26T17:33:53.356Z,19.07
2022-09-26T17:36:24.631Z,18.99
2022-09-26T17:38:53.723Z,18.90
2022-09-26T17:41:23.186Z,18.83
2022-09-26T17:44:01.836Z,18.81
2022-09-26T17:46:31.291Z,18.83
2022-09-26T17:49:00.706Z,18.89
2022-09-26T17:51:31.326Z,18.95
2022-09-26T17:53:59.735Z,19.00
2022-09-26T17:56:28.843Z,19.03
2022-09-26T17:58:57.381Z,19.04
2022-09-26T18:01:30.342Z,19.05
2022-09-26T18:04:03.821Z,19.04
2022-09-26T18:06:33.377Z,19.01
2022-09-26T18:09:07.625Z,18.98
2022-09-26T18:11:37.435Z,18.94
2022-09-26T18:14:08.299Z,18.91
2022-09-26T18:16:36.500Z,18.89
2022-09-26T18:19:16.739Z,18.85
2022-09-26T18:21:45.173Z,18.78
2022-09-26T18:24:19.429Z,18.71
2022-09-26T18:26:50.990Z,18.60
2022-09-26T18:29:32.258Z,18.50
2022-09-26T18:32:01.309Z,18.41
2022-09-26T18:34:29.869Z,18.44
2022-09-26T18:37:00.389Z,18.42
2022-09-26T18:39:30.766Z,18.42
2022-09-26T18:42:06.386Z,18.43
2022-09-26T18:44:40.851Z,18.40
2022-09-26T18:47:16.876Z,18.38
2022-09-26T18:49:46.682Z,18.37
2022-09-26T18:52:17.917Z,18.40
2022-09-26T18:55:06.876Z,18.45
2022-09-26T18:57:53.981Z,18.46
2022-09-26T19:00:22.119Z,18.44
2022-09-26T19:02:50.723Z,18.35
2022-09-26T19:05:19.569Z,18.33
2022-09-26T19:07:47.817Z,18.28
2022-09-26T19:10:17.743Z,18.21
2022-09-26T19:12:45.900Z,18.14
2022-09-26T19:15:17.588Z,18.09
2022-09-26T19:17:45.778Z,18.04
2022-09-26T19:20:14.034Z,18.00
2022-09-26T19:22:42.435Z,17.95
2022-09-26T19:25:10.614Z,17.92
2022-09-26T19:27:50.326Z,17.86
2022-09-26T19:30:24.131Z,17.88
2022-09-26T19:32:55.788Z,17.80
2022-09-26T19:35:33.294Z,17.66
2022-09-26T19:38:04.132Z,17.55
2022-09-26T19:40:32.353Z,17.53
2022-09-26T19:43:00.537Z,17.52
2022-09-26T19:45:32.117Z,17.57
2022-09-26T19:48:01.816Z,17.61
2022-09-26T19:50:32.725Z,17.65
2022-09-26T19:53:03.379Z,17.69
2022-09-26T19:55:31.818Z,17.73
2022-09-26T19:58:19.400Z,17.78
2022-09-26T20:00:50.614Z,17.82
2022-09-26T20:03:21.821Z,17.82
2022-09-26T20:05:50.295Z,17.66
2022-09-26T20:08:23.347Z,17.80
2022-09-26T20:10:59.313Z,17.75
2022-09-26T20:13:27.461Z,17.69
2022-09-26T20:15:55.841Z,17.63
2022-09-26T20:18:24.351Z,17.55
2022-09-26T20:20:56.842Z,17.49
2022-09-26T20:23:27.467Z,17.43
2022-09-26T20:25:56.172Z,17.37
2022-09-26T20:28:24.381Z,17.29
2022-09-26T20:30:52.716Z,17.20
2022-09-26T20:33:26.365Z,17.13
2022-09-26T20:36:06.726Z,17.11
2022-09-26T20:38:56.344Z,17.15
2022-09-26T20:41:34.851Z,17.15
2022-09-26T20:44:07.544Z,17.13
2022-09-26T20:46:39.703Z,17.10
2022-09-26T20:49:15.084Z,17.11
2022-09-26T20:51:44.656Z,17.12
2022-09-26T20:54:33.501Z,17.11
2022-09-26T20:57:01.624Z,17.11
2022-09-26T20:59:29.904Z,17.13
2022-09-26T21:01:59.967Z,17.14
2022-09-26T21:04:32.813Z,17.16
2022-09-26T21:07:01.038Z,17.18
2022-09-26T21:09:29.122Z,17.17
2022-09-26T21:11:57.142Z,17.15
2022-09-26T21:14:26.070Z,17.10
2022-09-26T21:16:54.751Z,17.02
2022-09-26T21:19:24.716Z,17.01
2022-09-26T21:22:02.910Z,17.02
2022-09-26T21:24:45.442Z,17.05
2022-09-26T21:27:13.911Z,17.10
2022-09-26T21:29:43.750Z,17.13
2022-09-26T21:32:18.705Z,17.18
2022-09-26T21:35:04.155Z,17.23
2022-09-26T21:37:32.336Z,17.27
2022-09-26T21:40:01.904Z,17.27
2022-09-26T21:42:30.049Z,17.24
2022-09-26T21:45:03.187Z,17.20
2022-09-26T21:47:32.222Z,17.13
2022-09-26T21:50:00.330Z,17.05
2022-09-26T21:52:37.048Z,16.94
2022-09-26T21:55:06.465Z,16.91
2022-09-26T21:57:41.914Z,16.88
2022-09-26T22:00:12.531Z,16.89
2022-09-26T22:02:43.603Z,16.92
2022-09-26T22:05:12.874Z,16.96
2022-09-26T22:07:41.037Z,17.00
2022-09-26T22:10:09.764Z,17.03
2022-09-26T22:12:37.823Z,17.01
2022-09-26T22:15:07.244Z,16.95
2022-09-26T22:17:35.578Z,16.86
2022-09-26T22:20:04.153Z,16.78
2022-09-26T22:22:32.316Z,16.66
2022-09-26T22:25:04.039Z,16.56
2022-09-26T22:27:33.712Z,16.51
2022-09-26T22:30:02.800Z,16.44
2022-09-26T22:32:30.978Z,16.37
2022-09-26T22:34:59.098Z,16.26
2022-09-26T22:37:28.175Z,16.19
2022-09-26T22:39:56.304Z,16.11
2022-09-26T22:42:24.448Z,16.04
2022-09-26T22:44:52.531Z,15.98
2022-09-26T22:47:20.651Z,15.94
2022-09-26T22:49:49.388Z,15.88
2022-09-26T22:52:17.573Z,15.81
2022-09-26T22:54:45.817Z,15.71
2022-09-26T22:57:13.989Z,15.60
2022-09-26T22:59:42.097Z,15.46
2022-09-26T23:02:10.253Z,15.35
2022-09-26T23:04:47.372Z,15.27
2022-09-26T23:07:18.644Z,15.23
2022-09-26T23:09:47.116Z,15.25
2022-09-26T23:12:15.552Z,15.28
2022-09-26T23:14:43.760Z,15.30
2022-09-26T23:17:12.053Z,15.32
2022-09-26T23:19:40.288Z,15.34
2022-09-26T23:22:08.506Z,15.34
2022-09-26T23:24:36.633Z,15.36
2022-09-26T23:27:05.025Z,15.30
2022-09-26T23:29:33.300Z,15.32
2022-09-26T23:32:01.611Z,15.26
2022-09-26T23:34:29.680Z,15.20
2022-09-26T23:36:57.817Z,15.14
2022-09-26T23:39:25.905Z,15.07
2022-09-26T23:41:54.096Z,15.02
2022-09-26T23:44:22.295Z,14.98
2022-09-26T23:46:50.362Z,14.95
2022-09-26T23:49:18.391Z,14.91
2022-09-26T23:51:47.759Z,14.88
2022-09-26T23:54:15.921Z,14.86
2022-09-26T23:56:44.017Z,14.85
2022-09-26T23:59:12.239Z,14.83
